Coeur d'Alene, Idaho
Current Conditions -  °F | °C
As of 8:55 AM on Thursday 30 Oct 2014 (Local Time) from KCOE Reporting Station
Few Clouds Few Clouds  
Wind Chill: 41°   Ceiling: Unl
Heat Index: 46°   Visibility: 10mi
Dew Point: 43°   Wind: 13mph
Humidity: 87%   Direction: 20°NNE
Pressure: 30.13"   Gusts: NA
Location:  47.68°N, 116.79°W
Report Text: KCOE 301555Z AUTO 02011KT 10SM FEW075 08/06 A3013 RMK AO1
Loading
Personal Weather Stations






























Interactive Weather Map New forecast layout! Learn more

10-Day Weather Forecast

Advertisements
Track Severe Weather on mobile